Time;durP1;ratioP1;P1;durP2;ratioP2;P2;SDS_P1;SDS_P2;PMS_P1;PMS_P2;Temp;Humidity;BMP_temperature;BMP_pressure;BME280_temperature;BME280_humidity;BME280_pressure;Samples;Min_cycle;Max_cycle;Signal;HPM_P1;HPM_P2
2024/01/21 00:09:44;;;;;;;7.77;4.70;;;;;;;2.92;100.00;101229.56;31019144;28;20426;-75
2024/01/21 00:24:46;;;;;;;8.73;4.83;;;;;;;2.66;100.00;101227.25;31003808;28;20050;-75
2024/01/21 00:39:48;;;;;;;8.27;4.80;;;;;;;2.49;100.00;101216.78;31009557;28;20054;-76
2024/01/21 00:54:50;;;;;;;7.77;3.90;;;;;;;2.43;100.00;101211.97;30993356;28;20089;-75
2024/01/21 01:09:52;;;;;;;8.63;4.70;;;;;;;2.29;100.00;101223.03;30987666;28;20050;-75
2024/01/21 01:24:54;;;;;;;8.70;3.93;;;;;;;2.32;100.00;101228.50;30990616;28;20058;-75
2024/01/21 01:39:56;;;;;;;7.80;4.90;;;;;;;3.23;100.00;101225.44;30992326;28;20145;-75
2024/01/21 01:54:58;;;;;;;6.83;4.23;;;;;;;3.24;100.00;101224.34;31001416;28;20066;-75
2024/01/21 02:10:04;;;;;;;6.37;4.33;;;;;;;3.23;100.00;101250.38;30995834;28;20054;-75
2024/01/21 02:25:07;;;;;;;8.13;5.73;;;;;;;3.39;100.00;101261.16;30995342;28;20058;-75
2024/01/21 02:40:09;;;;;;;11.47;5.60;;;;;;;3.24;100.00;101272.63;30986017;28;20066;-75
2024/01/21 02:55:11;;;;;;;10.87;6.47;;;;;;;3.16;100.00;101297.69;31020500;28;20092;-75
2024/01/21 03:10:14;;;;;;;16.70;6.73;;;;;;;3.24;100.00;101323.63;31005837;28;20146;-75
2024/01/21 03:25:15;;;;;;;12.07;6.60;;;;;;;3.22;100.00;101317.81;30996793;28;20150;-75
2024/01/21 03:40:17;;;;;;;14.90;7.67;;;;;;;3.12;100.00;101313.69;30995744;28;21288;-75
2024/01/21 03:55:21;;;;;;;13.70;6.20;;;;;;;3.17;100.00;101315.34;30985393;28;20084;-76
2024/01/21 04:10:25;;;;;;;10.97;6.33;;;;;;;2.97;100.00;101328.56;30994302;28;20413;-75
2024/01/21 04:25:27;;;;;;;8.80;5.60;;;;;;;2.94;100.00;101323.88;31002832;28;20326;-74
2024/01/21 04:40:29;;;;;;;39.00;19.67;;;;;;;2.55;100.00;101327.25;30979816;28;20153;-74
2024/01/21 04:55:31;;;;;;;19.23;9.90;;;;;;;2.36;100.00;101349.97;31007727;28;20402;-76
2024/01/21 05:10:34;;;;;;;25.77;15.47;;;;;;;2.36;100.00;101368.75;30992443;28;20073;-77
2024/01/21 05:25:35;;;;;;;26.27;16.67;;;;;;;2.35;100.00;101372.56;31007887;28;20065;-76
2024/01/21 05:40:37;;;;;;;31.60;18.17;;;;;;;2.32;100.00;101383.16;30982191;28;20059;-77
2024/01/21 05:55:40;;;;;;;25.20;13.23;;;;;;;2.38;100.00;101420.09;30978944;28;20073;-75
2024/01/21 06:10:42;;;;;;;8.93;6.10;;;;;;;3.83;100.00;101411.63;30984670;28;20052;-76
2024/01/21 06:25:44;;;;;;;21.37;12.87;;;;;;;2.88;100.00;101427.13;31001544;28;20054;-74
2024/01/21 06:40:46;;;;;;;11.47;6.07;;;;;;;2.97;100.00;101440.47;31058824;28;20042;-75
2024/01/21 06:55:48;;;;;;;8.30;4.63;;;;;;;2.98;100.00;101440.13;31036418;28;20085;-75
2024/01/21 07:10:50;;;;;;;16.70;8.27;;;;;;;3.02;100.00;101446.41;31036267;28;20088;-78
2024/01/21 07:25:52;;;;;;;7.23;4.30;;;;;;;3.17;100.00;101433.41;30996193;28;20058;-79
2024/01/21 07:41:06;;;;;;;9.70;5.83;;;;;;;3.38;100.00;101439.44;31004329;28;20057;-76
2024/01/21 07:56:08;;;;;;;11.97;6.43;;;;;;;3.76;100.00;101442.53;31017989;28;20058;-80
2024/01/21 08:11:10;;;;;;;10.23;5.67;;;;;;;4.30;100.00;101452.88;30990376;28;20051;-83
2024/01/21 08:26:12;;;;;;;9.53;4.83;;;;;;;4.56;99.33;101457.00;30996735;28;20055;-82
2024/01/21 08:41:14;;;;;;;10.33;6.63;;;;;;;4.47;100.00;101451.81;31003528;28;20137;-79
2024/01/21 08:56:16;;;;;;;10.50;5.00;;;;;;;4.51;100.00;101446.50;30997431;28;20129;-81
2024/01/21 09:11:18;;;;;;;8.87;5.60;;;;;;;4.24;100.00;101448.09;31004166;28;20503;-81
2024/01/21 09:26:21;;;;;;;11.00;6.50;;;;;;;4.06;100.00;101447.59;30996425;28;20065;-79
2024/01/21 09:41:42;;;;;;;27.30;9.43;;;;;;;3.73;100.00;101448.59;30991822;28;20046;-83
2024/01/21 09:56:45;;;;;;;15.53;7.97;;;;;;;4.41;100.00;101439.72;31025374;28;20584;-81
2024/01/21 10:11:57;;;;;;;20.03;9.20;;;;;;;4.70;100.00;101443.94;31024744;28;20054;-83
2024/01/21 10:26:59;;;;;;;14.53;7.57;;;;;;;4.51;100.00;101451.88;30998703;28;20495;-83
2024/01/21 10:42:02;;;;;;;17.37;8.57;;;;;;;4.56;100.00;101443.56;30986459;28;20058;-79
2024/01/21 10:57:04;;;;;;;18.50;8.93;;;;;;;4.68;100.00;101452.38;30960344;28;20064;-78
2024/01/21 11:12:08;;;;;;;16.93;7.50;;;;;;;4.78;100.00;101457.22;30993166;28;20061;-77
2024/01/21 11:27:24;;;;;;;16.73;8.00;;;;;;;4.84;100.00;101452.38;31037394;28;20422;-78
2024/01/21 11:42:27;;;;;;;14.53;7.67;;;;;;;4.72;100.00;101463.97;31017552;28;20128;-76
2024/01/21 11:57:29;;;;;;;22.60;10.63;;;;;;;4.55;100.00;101474.28;31014246;28;20102;-77
2024/01/21 12:12:31;;;;;;;15.27;7.83;;;;;;;4.83;100.00;101480.41;30967896;28;20598;-78
2024/01/21 12:27:36;;;;;;;27.63;11.83;;;;;;;4.69;100.00;101498.88;30995178;28;20055;-79
2024/01/21 12:42:38;;;;;;;16.80;9.60;;;;;;;4.60;100.00;101519.75;31029331;28;20060;-78
2024/01/21 12:57:40;;;;;;;17.50;9.10;;;;;;;4.85;100.00;101526.59;30987730;28;20158;-78
2024/01/21 13:12:43;;;;;;;21.50;9.43;;;;;;;5.06;100.00;101532.50;30985687;28;20058;-76
2024/01/21 13:27:54;;;;;;;27.60;13.77;;;;;;;4.77;100.00;101540.97;30991692;28;20054;-75
2024/01/21 13:42:57;;;;;;;24.87;13.00;;;;;;;4.81;100.00;101563.38;30989003;28;20050;-78
2024/01/21 13:58:01;;;;;;;20.27;9.77;;;;;;;4.69;100.00;101582.28;30993799;28;20058;-75
2024/01/21 14:13:04;;;;;;;25.23;11.43;;;;;;;4.64;100.00;101602.13;30973434;28;20054;-76
2024/01/21 14:28:06;;;;;;;19.33;10.07;;;;;;;4.57;100.00;101609.97;30992855;28;20054;-77
2024/01/21 14:43:09;;;;;;;17.37;7.63;;;;;;;4.48;100.00;101635.44;30996682;28;20064;-77
2024/01/21 14:58:11;;;;;;;14.53;7.67;;;;;;;4.60;100.00;101654.25;31021681;28;20613;-78
2024/01/21 15:13:25;;;;;;;18.73;9.57;;;;;;;4.84;100.00;101670.31;30976800;28;20518;-79
2024/01/21 15:28:27;;;;;;;21.93;10.77;;;;;;;4.26;100.00;101690.47;31006535;28;20097;-84
2024/01/21 15:43:30;;;;;;;22.43;10.77;;;;;;;3.96;100.00;101706.03;31017017;28;20057;-83
2024/01/21 15:58:32;;;;;;;19.00;9.03;;;;;;;4.11;100.00;101732.25;31015711;28;20057;-84
2024/01/21 16:13:34;;;;;;;22.17;10.30;;;;;;;4.21;100.00;101747.94;31020124;28;20082;-84
2024/01/21 16:28:39;;;;;;;17.47;9.50;;;;;;;4.05;100.00;101781.94;30900717;28;20058;-81
2024/01/21 16:43:41;;;;;;;22.93;8.87;;;;;;;3.94;100.00;101811.16;30882292;28;20086;-83
2024/01/21 16:58:43;;;;;;;21.53;10.87;;;;;;;3.83;100.00;101830.69;30864072;28;20058;-81
2024/01/21 17:13:45;;;;;;;26.07;11.80;;;;;;;3.68;100.00;101835.56;30888222;28;20085;-82
2024/01/21 17:28:47;;;;;;;33.17;16.50;;;;;;;3.81;100.00;101840.97;31008861;28;20057;-83
2024/01/21 17:43:49;;;;;;;44.10;18.13;;;;;;;3.73;100.00;101859.53;31011511;28;20467;-82
2024/01/21 17:58:51;;;;;;;48.17;19.63;;;;;;;3.97;100.00;101887.63;31030816;28;20054;-82
2024/01/21 18:13:54;;;;;;;37.87;17.20;;;;;;;4.13;100.00;101902.03;30965801;28;20062;-82
2024/01/21 18:28:56;;;;;;;33.27;15.43;;;;;;;4.39;100.00;101944.78;31036083;28;20049;-82
2024/01/21 18:44:19;;;;;;;25.10;12.53;;;;;;;4.16;100.00;101962.41;31020181;28;20065;-81
2024/01/21 18:59:21;;;;;;;26.23;12.70;;;;;;;3.80;100.00;101984.47;31039258;28;20443;-81
2024/01/21 19:14:23;;;;;;;27.20;12.13;;;;;;;3.73;100.00;102003.81;31032850;28;20074;-84
2024/01/21 19:29:25;;;;;;;23.57;12.07;;;;;;;3.89;100.00;102017.44;31009223;28;20054;-82
2024/01/21 19:44:28;;;;;;;21.30;10.20;;;;;;;3.98;100.00;102031.63;31014891;28;20490;-80
2024/01/21 19:59:34;;;;;;;23.90;12.30;;;;;;;4.15;100.00;102053.00;31021665;28;20113;-79
2024/01/21 20:14:36;;;;;;;;;;;;;;;4.48;100.00;102050.38;31020372;28;20065;-79
2024/01/21 20:29:40;;;;;;;33.07;14.37;;;;;;;4.27;100.00;102073.78;30995581;28;20396;-80
2024/01/21 20:44:44;;;;;;;29.43;13.73;;;;;;;4.23;100.00;102086.34;31009184;28;20488;-80
2024/01/21 20:59:46;;;;;;;28.73;13.17;;;;;;;4.19;100.00;102102.31;30985999;28;20054;-81
2024/01/21 21:14:50;;;;;;;32.03;15.23;;;;;;;3.95;100.00;102105.63;30988172;28;20112;-82
2024/01/21 21:30:03;;;;;;;31.30;15.03;;;;;;;4.19;100.00;102105.00;31709042;27;20887;-83
2024/01/21 21:45:06;;;;;;;32.93;14.67;;;;;;;4.23;100.00;102108.63;31609529;28;20041;-79
2024/01/21 22:00:11;;;;;;;20.33;11.30;;;;;;;3.82;100.00;102120.06;31655988;28;20044;-79
2024/01/21 22:15:13;;;;;;;22.53;10.77;;;;;;;3.92;100.00;102118.91;31667185;28;20113;-80
2024/01/21 22:30:16;;;;;;;20.30;10.43;;;;;;;3.86;100.00;102126.34;31575595;28;20052;-80
2024/01/21 22:45:18;;;;;;;18.27;10.00;;;;;;;3.91;100.00;102134.25;31523758;28;20458;-76
2024/01/21 23:00:21;;;;;;;23.63;10.13;;;;;;;3.78;100.00;102139.84;31481673;28;21872;-75
2024/01/21 23:15:23;;;;;;;21.70;10.03;;;;;;;3.74;100.00;102159.28;31470888;28;20058;-75
2024/01/21 23:30:26;;;;;;;19.10;10.20;;;;;;;3.72;100.00;102180.31;31490828;28;20055;-74
2024/01/21 23:45:28;;;;;;;19.83;10.23;;;;;;;3.61;100.00;102200.56;31478493;28;20037;-75
